Time;durP1;ratioP1;P1;durP2;ratioP2;P2;SDS_P1;SDS_P2;PMS_P1;PMS_P2;Temp;Humidity;BMP_temperature;BMP_pressure;BME280_temperature;BME280_humidity;BME280_pressure;Samples;Min_cycle;Max_cycle;Signal;HPM_P1;HPM_P2
2021/01/15 00:00:39;;;;;;;43.73;29.40;;;;;;;-1.38;70.09;100532.39;124906;1130;22608;-77
2021/01/15 00:03:07;;;;;;;43.75;28.87;;;;;;;-1.36;70.16;100530.56;124944;1129;22463;-79
2021/01/15 00:05:38;;;;;;;36.87;27.37;;;;;;;-1.37;69.96;100532.30;124876;1130;22453;-77
2021/01/15 00:08:07;;;;;;;41.58;28.62;;;;;;;-1.35;69.47;100525.28;124939;1130;22540;-77
2021/01/15 00:10:35;;;;;;;42.13;29.20;;;;;;;-1.35;69.21;100529.63;124964;1129;22457;-78
2021/01/15 00:13:03;;;;;;;41.98;30.30;;;;;;;-1.37;69.27;100521.09;125052;1130;22438;-78
2021/01/15 00:15:31;;;;;;;44.95;31.77;;;;;;;-1.37;69.91;100529.70;125404;1127;22911;-77
2021/01/15 00:17:59;;;;;;;41.65;31.20;;;;;;;-1.38;69.49;100525.45;125365;1128;22440;-78
2021/01/15 00:20:27;;;;;;;39.98;28.83;;;;;;;-1.39;69.79;100528.14;125378;1128;22450;-77
2021/01/15 00:22:55;;;;;;;34.80;27.00;;;;;;;-1.38;69.96;100520.27;125385;1127;22438;-77
2021/01/15 00:25:24;;;;;;;34.08;26.40;;;;;;;-1.37;69.46;100523.69;125342;1129;22571;-77
2021/01/15 00:27:52;;;;;;;40.27;26.20;;;;;;;-1.36;69.96;100515.84;125395;1131;22433;-77
2021/01/15 00:30:21;;;;;;;42.08;29.27;;;;;;;-1.32;70.32;100522.52;125361;1131;22451;-77
2021/01/15 00:32:49;;;;;;;39.65;27.20;;;;;;;-1.32;69.82;100530.29;125390;1127;22697;-77
2021/01/15 00:35:18;;;;;;;36.05;25.12;;;;;;;-1.32;69.55;100524.28;125070;1129;22451;-77
2021/01/15 00:37:46;;;;;;;37.42;24.40;;;;;;;-1.32;69.13;100532.05;125347;1127;24297;-77
2021/01/15 00:40:14;;;;;;;37.17;24.57;;;;;;;-1.30;69.47;100533.64;125356;1127;22444;-77
2021/01/15 00:42:42;;;;;;;31.75;23.35;;;;;;;-1.28;70.22;100525.77;125394;1127;22432;-77
2021/01/15 00:45:16;;;;;;;35.60;25.70;;;;;;;-1.28;69.26;100541.31;125140;1127;24558;-77
2021/01/15 00:47:45;;;;;;;38.20;26.80;;;;;;;-1.27;69.85;100542.98;125384;1127;22891;-77
2021/01/15 00:50:14;;;;;;;37.85;25.05;;;;;;;-1.27;69.61;100540.38;125203;1129;22475;-77
2021/01/15 00:52:43;;;;;;;43.33;27.73;;;;;;;-1.25;69.48;100533.36;125367;1127;24562;-77
2021/01/15 00:55:11;;;;;;;35.43;25.35;;;;;;;-1.25;68.98;100535.95;125453;1127;24578;-76
2021/01/15 00:57:40;;;;;;;36.42;26.02;;;;;;;-1.23;69.21;100536.72;125378;1130;22961;-77
2021/01/15 01:00:11;;;;;;;39.53;27.25;;;;;;;-1.22;69.87;100528.01;125399;1127;25038;-77
2021/01/15 01:03:00;;;;;;;43.42;27.55;;;;;;;-1.23;70.03;100527.18;125328;1127;22447;-78
2021/01/15 01:05:29;;;;;;;38.83;25.82;;;;;;;-1.24;69.29;100533.27;125369;1127;22443;-77
2021/01/15 01:07:58;;;;;;;36.17;25.77;;;;;;;-1.23;69.87;100523.76;125446;1127;24552;-77
2021/01/15 01:10:26;;;;;;;37.63;26.82;;;;;;;-1.27;69.62;100523.06;125419;1131;23442;-77
2021/01/15 01:12:54;;;;;;;37.30;27.87;;;;;;;-1.27;69.94;100517.05;125428;1129;23314;-78
2021/01/15 01:15:22;;;;;;;36.88;26.50;;;;;;;-1.28;69.99;100525.77;125355;1130;22445;-78
2021/01/15 01:17:52;;;;;;;35.80;27.13;;;;;;;-1.31;69.14;100529.36;125047;1130;22488;-78
2021/01/15 01:20:20;;;;;;;37.30;27.62;;;;;;;-1.33;69.61;100518.27;125448;1127;24243;-78
2021/01/15 01:22:51;;;;;;;35.50;25.68;;;;;;;-1.30;70.02;100532.78;125203;1127;22597;-78
2021/01/15 01:25:19;;;;;;;39.35;26.65;;;;;;;-1.32;69.48;100534.64;125333;1130;22414;-78
2021/01/15 01:27:47;;;;;;;36.30;25.30;;;;;;;-1.33;70.19;100535.55;125407;1127;22432;-78
2021/01/15 01:30:16;;;;;;;45.88;30.05;;;;;;;-1.35;70.20;100530.46;125398;1130;22463;-78
2021/01/15 01:32:44;;;;;;;36.05;26.23;;;;;;;-1.35;69.79;100535.64;125447;1127;22800;-78
2021/01/15 01:35:15;;;;;;;40.40;26.82;;;;;;;-1.36;69.87;100544.35;125354;1128;22423;-78
2021/01/15 01:37:44;;;;;;;37.45;26.45;;;;;;;-1.36;70.37;100535.75;125093;1130;22432;-78
2021/01/15 01:40:15;;;;;;;36.60;27.70;;;;;;;-1.39;70.06;100548.87;125055;1130;22434;-78
2021/01/15 01:42:43;;;;;;;42.23;29.50;;;;;;;-1.40;70.77;100540.23;125410;1127;22435;-78
2021/01/15 01:45:12;;;;;;;39.58;28.55;;;;;;;-1.41;70.46;100533.39;125412;1129;22442;-78
2021/01/15 01:47:41;;;;;;;38.50;28.35;;;;;;;-1.42;70.76;100536.92;125369;1127;22438;-78
2021/01/15 01:50:10;;;;;;;41.53;30.43;;;;;;;-1.42;70.42;100540.34;125388;1127;22480;-78
2021/01/15 01:52:38;;;;;;;37.67;28.45;;;;;;;-1.40;70.27;100537.64;125331;1127;22442;-78
2021/01/15 01:55:08;;;;;;;41.42;30.15;;;;;;;-1.38;70.95;100553.95;125352;1127;22437;-78
2021/01/15 01:57:36;;;;;;;42.62;31.10;;;;;;;-1.37;70.78;100542.66;125359;1130;22546;-78
2021/01/15 02:00:07;;;;;;;41.53;29.80;;;;;;;-1.39;71.08;100541.93;125220;1129;23298;-78
2021/01/15 02:02:39;;;;;;;43.40;31.52;;;;;;;-1.40;71.39;100552.36;125401;1127;22444;-77
2021/01/15 02:05:09;;;;;;;38.63;29.87;;;;;;;-1.40;70.67;100553.20;125401;1127;22459;-77
2021/01/15 02:07:37;;;;;;;43.58;31.23;;;;;;;-1.38;71.36;100541.00;125469;1127;24243;-76
2021/01/15 02:10:18;;;;;;;41.00;28.42;;;;;;;-1.37;71.17;100544.42;125356;1129;23255;-77
2021/01/15 02:13:10;;;;;;;46.65;30.80;;;;;;;-1.35;71.17;100546.02;125464;1126;24415;-77
2021/01/15 02:15:56;;;;;;;44.65;30.05;;;;;;;-1.34;71.22;100552.02;125436;1127;22445;-77
2021/01/15 02:18:34;;;;;;;47.58;29.30;;;;;;;-1.33;71.58;100549.36;125426;1127;22436;-78
2021/01/15 02:22:01;;;;;;;52.83;30.52;;;;;;;-1.33;71.50;100546.77;125380;1127;22495;-77
2021/01/15 02:24:35;;;;;;;46.23;28.65;;;;;;;-1.33;71.88;100564.91;125437;1127;22482;-77
2021/01/15 02:28:01;;;;;;;46.70;31.45;;;;;;;-1.31;71.78;100572.59;125407;1130;22495;-77
2021/01/15 02:30:42;;;;;;;43.40;30.70;;;;;;;-1.30;70.91;100574.25;124921;1134;22443;-78
2021/01/15 02:33:19;;;;;;;43.38;29.23;;;;;;;-1.29;70.98;100579.36;124949;1130;22460;-77
2021/01/15 02:35:55;;;;;;;45.65;31.70;;;;;;;-1.28;70.95;100590.56;124929;1130;22451;-77
2021/01/15 02:38:56;;;;;;;38.92;30.05;;;;;;;-1.28;71.66;100582.78;124888;1130;22436;-77
2021/01/15 02:41:29;;;;;;;35.17;26.23;;;;;;;-1.31;71.30;100599.34;124944;1129;22456;-78
2021/01/15 02:44:03;;;;;;;33.40;25.77;;;;;;;-1.33;71.04;100597.74;124940;1129;24760;-78
2021/01/15 02:46:40;;;;;;;34.40;25.40;;;;;;;-1.39;71.35;100596.34;124993;1130;22451;-77
2021/01/15 02:49:10;;;;;;;35.35;25.32;;;;;;;-1.42;71.12;100599.94;124927;1130;22460;-77
2021/01/15 02:51:40;;;;;;;27.52;20.68;;;;;;;-1.50;70.75;100589.17;125024;1129;22460;-77
2021/01/15 02:54:09;;;;;;;26.68;19.35;;;;;;;-1.57;70.55;100586.98;124973;1130;24607;-77
2021/01/15 02:56:38;;;;;;;23.73;19.10;;;;;;;-1.60;70.29;100600.97;124970;1133;22533;-77
2021/01/15 02:59:07;;;;;;;25.45;16.65;;;;;;;-1.66;70.45;100609.90;124976;1130;22444;-77
2021/01/15 03:02:04;;;;;;;21.42;14.38;;;;;;;-1.72;70.62;100620.59;125189;1131;22465;-77
2021/01/15 03:05:13;;;;;;;20.95;12.88;;;;;;;-1.83;69.56;100612.57;125428;1127;22453;-77
2021/01/15 03:07:45;;;;;;;20.27;13.65;;;;;;;-1.92;70.09;100606.12;125444;1127;24590;-77
2021/01/15 03:10:14;;;;;;;23.73;16.93;;;;;;;-1.93;69.54;100619.98;125374;1127;24576;-77
2021/01/15 03:12:43;;;;;;;18.62;14.15;;;;;;;-1.95;69.22;100613.22;125385;1127;25104;-78
2021/01/15 03:15:14;;;;;;;20.62;15.25;;;;;;;-1.97;68.86;100615.03;125350;1127;22425;-77
2021/01/15 03:17:47;;;;;;;23.98;17.20;;;;;;;-2.00;69.39;100621.23;125409;1127;22428;-77
2021/01/15 03:20:16;;;;;;;20.00;14.47;;;;;;;-2.06;68.50;100626.73;125462;1127;22449;-78
2021/01/15 03:22:45;;;;;;;20.10;16.50;;;;;;;-2.11;68.63;100627.88;125435;1127;22438;-77
2021/01/15 03:25:15;;;;;;;22.00;16.40;;;;;;;-2.19;69.02;100625.70;125391;1127;23220;-77
2021/01/15 03:27:54;;;;;;;19.77;15.70;;;;;;;-2.24;68.34;100632.85;125418;1127;24561;-78
2021/01/15 03:30:29;;;;;;;22.55;16.15;;;;;;;-2.30;68.34;100625.39;125219;1127;24246;-76
2021/01/15 03:33:03;;;;;;;16.02;12.18;;;;;;;-2.35;68.01;100640.34;125040;1131;22438;-77
2021/01/15 03:35:33;;;;;;;19.00;15.23;;;;;;;-2.40;68.29;100649.18;125368;1127;22447;-77
2021/01/15 03:38:08;;;;;;;18.70;14.05;;;;;;;-2.43;68.21;100656.27;125415;1129;22452;-79
2021/01/15 03:40:48;;;;;;;22.42;15.98;;;;;;;-2.48;68.47;100659.06;125322;1127;22459;-78
2021/01/15 03:43:18;;;;;;;19.30;15.45;;;;;;;-2.50;67.87;100657.45;125363;1127;25044;-77
2021/01/15 03:45:50;;;;;;;22.15;15.53;;;;;;;-2.54;67.99;100656.77;125462;1126;24499;-77
2021/01/15 03:48:21;;;;;;;21.75;16.02;;;;;;;-2.58;67.65;100660.44;125405;1127;24249;-77
2021/01/15 03:50:51;;;;;;;23.52;18.17;;;;;;;-2.63;67.74;100665.84;125444;1127;23617;-77
2021/01/15 03:53:20;;;;;;;26.37;18.40;;;;;;;-2.66;67.66;100655.65;125409;1127;25041;-77
2021/01/15 03:55:48;;;;;;;26.40;18.47;;;;;;;-2.70;67.24;100646.38;125211;1127;22495;-77
2021/01/15 03:58:17;;;;;;;25.10;18.92;;;;;;;-2.76;67.76;100657.02;125411;1127;22450;-77
2021/01/15 04:00:45;;;;;;;25.65;19.32;;;;;;;-2.78;67.70;100668.34;125375;1130;22439;-78
2021/01/15 04:03:14;;;;;;;26.73;18.90;;;;;;;-2.81;67.50;100673.66;125368;1129;22445;-78
2021/01/15 04:05:42;;;;;;;37.07;24.87;;;;;;;-2.81;67.42;100677.08;125420;1130;22436;-78
2021/01/15 04:08:12;;;;;;;39.30;26.12;;;;;;;-2.81;67.84;100674.49;125416;1127;22442;-78
2021/01/15 04:10:40;;;;;;;30.62;22.05;;;;;;;-2.80;67.93;100672.73;125377;1130;22457;-78
2021/01/15 04:13:08;;;;;;;27.75;20.23;;;;;;;-2.81;67.80;100682.25;125042;1129;23471;-78
2021/01/15 04:15:37;;;;;;;23.30;18.03;;;;;;;-2.81;67.52;100678.83;125318;1127;22453;-78
2021/01/15 04:18:05;;;;;;;28.55;18.45;;;;;;;-2.82;67.37;100679.75;125403;1127;22450;-78
2021/01/15 04:20:33;;;;;;;26.00;18.15;;;;;;;-2.82;67.68;100677.16;125363;1127;22541;-78
2021/01/15 04:23:01;;;;;;;24.25;18.00;;;;;;;-2.84;67.61;100675.47;125369;1128;23245;-78
2021/01/15 04:25:29;;;;;;;23.18;16.37;;;;;;;-2.86;66.76;100664.39;125417;1128;22438;-78
2021/01/15 04:27:57;;;;;;;22.90;17.65;;;;;;;-2.90;66.75;100656.83;125380;1127;22444;-78
2021/01/15 04:30:27;;;;;;;25.45;19.27;;;;;;;-2.93;66.64;100651.81;125438;1127;22533;-78
2021/01/15 04:32:55;;;;;;;27.30;20.50;;;;;;;-2.95;66.79;100657.06;125423;1127;22441;-78
2021/01/15 04:35:24;;;;;;;32.23;22.15;;;;;;;-2.97;66.80;100665.80;125364;1131;22492;-79
2021/01/15 04:37:52;;;;;;;32.95;23.47;;;;;;;-2.98;66.71;100661.55;125364;1127;22507;-78
2021/01/15 04:40:20;;;;;;;33.25;24.50;;;;;;;-3.01;66.81;100654.77;125358;1129;22520;-78
2021/01/15 04:42:50;;;;;;;32.38;24.47;;;;;;;-2.99;66.55;100646.96;125360;1127;22442;-78
2021/01/15 04:45:19;;;;;;;30.00;22.02;;;;;;;-2.95;66.87;100645.89;125441;1127;24603;-78
2021/01/15 04:47:49;;;;;;;34.70;22.77;;;;;;;-2.93;66.66;100636.30;125204;1127;22933;-78
2021/01/15 04:50:17;;;;;;;33.58;24.12;;;;;;;-2.91;66.88;100624.98;124990;1130;22428;-78
2021/01/15 04:52:50;;;;;;;24.75;17.10;;;;;;;-2.89;66.46;100638.67;125446;1128;22482;-78
2021/01/15 04:55:22;;;;;;;27.37;20.48;;;;;;;-2.87;66.70;100631.66;125460;1127;22446;-79
2021/01/15 04:57:53;;;;;;;27.70;19.32;;;;;;;-2.87;66.77;100629.08;125420;1131;22434;-79
2021/01/15 05:00:25;;;;;;;27.75;20.57;;;;;;;-2.85;66.84;100629.85;125388;1127;22444;-79
2021/01/15 05:02:54;;;;;;;27.48;20.57;;;;;;;-2.84;66.36;100630.69;125433;1127;22447;-79
2021/01/15 05:05:24;;;;;;;28.52;20.65;;;;;;;-2.85;66.81;100629.02;125386;1127;22494;-78
2021/01/15 05:08:14;;;;;;;33.67;24.15;;;;;;;-2.85;66.39;100635.02;125375;1127;24559;-79
2021/01/15 05:10:48;;;;;;;33.42;25.27;;;;;;;-2.87;66.92;100651.52;125372;1127;22425;-79
2021/01/15 05:13:18;;;;;;;32.88;24.35;;;;;;;-2.84;66.19;100659.12;125358;1127;22436;-79
2021/01/15 05:15:49;;;;;;;32.15;24.30;;;;;;;-2.85;66.61;100660.87;125076;1129;22457;-79
2021/01/15 05:18:20;;;;;;;34.67;23.95;;;;;;;-2.86;66.56;100660.97;125248;1130;22444;-77
2021/01/15 05:20:51;;;;;;;38.85;25.57;;;;;;;-2.88;66.51;100657.61;125502;1127;22445;-79
2021/01/15 05:23:20;;;;;;;33.33;25.55;;;;;;;-2.88;66.62;100657.61;125369;1130;22494;-77
2021/01/15 05:25:48;;;;;;;37.08;26.20;;;;;;;-2.90;66.66;100655.11;125369;1127;24303;-79
2021/01/15 05:28:21;;;;;;;36.73;26.02;;;;;;;-2.92;66.49;100654.34;125101;1127;22472;-77
2021/01/15 05:30:57;;;;;;;38.33;28.25;;;;;;;-2.91;67.04;100647.41;125384;1128;22479;-77
2021/01/15 05:33:27;;;;;;;41.63;28.50;;;;;;;-2.93;66.73;100650.09;125122;1127;22454;-77
2021/01/15 05:35:56;;;;;;;45.33;30.15;;;;;;;-2.89;67.11;100648.19;125074;1127;25028;-77
2021/01/15 05:38:25;;;;;;;48.13;28.95;;;;;;;-2.86;66.96;100651.45;125340;1127;22456;-77
2021/01/15 05:40:55;;;;;;;47.55;30.35;;;;;;;-2.82;67.24;100659.06;125037;1127;24578;-76
2021/01/15 05:43:32;;;;;;;57.60;32.53;;;;;;;-2.80;66.53;100659.81;125332;1127;22423;-77
2021/01/15 05:46:17;;;;;;;51.75;31.85;;;;;;;-2.78;66.68;100658.00;125365;1127;24571;-76
2021/01/15 05:48:53;;;;;;;51.45;30.75;;;;;;;-2.76;67.23;100641.50;125095;1127;22457;-77
2021/01/15 05:51:32;;;;;;;46.42;29.70;;;;;;;-2.70;67.08;100642.93;125192;1128;22498;-77
2021/01/15 05:54:03;;;;;;;66.87;40.43;;;;;;;-2.70;67.06;100638.62;125373;1127;22439;-77
2021/01/15 05:56:45;;;;;;;72.90;44.85;;;;;;;-2.68;66.66;100641.95;125421;1127;22441;-76
2021/01/15 05:59:18;;;;;;;68.93;42.47;;;;;;;-2.67;66.69;100650.53;125220;1129;22463;-77
2021/01/15 06:02:05;;;;;;;60.05;38.45;;;;;;;-2.67;66.80;100666.05;125357;1127;22460;-76
2021/01/15 06:04:38;;;;;;;79.60;43.48;;;;;;;-2.68;67.03;100672.98;125151;1129;22450;-76
2021/01/15 06:07:06;;;;;;;70.83;40.98;;;;;;;-2.72;66.48;100671.47;125104;1131;22466;-76
2021/01/15 06:09:43;;;;;;;74.60;42.55;;;;;;;-2.70;66.64;100684.30;125410;1127;22446;-77
2021/01/15 06:12:19;;;;;;;69.97;40.12;;;;;;;-2.70;66.39;100686.89;125115;1127;25051;-77
2021/01/15 06:14:57;;;;;;;77.37;42.83;;;;;;;-2.71;66.79;100691.23;125377;1130;22448;-77
2021/01/15 06:17:27;;;;;;;56.90;37.78;;;;;;;-2.73;66.55;100687.04;125083;1129;22481;-77
2021/01/15 06:20:00;;;;;;;57.17;36.75;;;;;;;-2.73;66.40;100687.04;125147;1130;22480;-77
2021/01/15 06:22:44;;;;;;;48.85;31.55;;;;;;;-2.70;67.10;100681.72;125425;1128;22447;-77
2021/01/15 06:25:34;;;;;;;51.00;29.57;;;;;;;-2.69;67.01;100683.41;125024;1127;22461;-77
2021/01/15 06:28:09;;;;;;;54.47;31.83;;;;;;;-2.71;66.44;100685.22;124989;1127;22495;-76
2021/01/15 06:30:38;;;;;;;54.70;31.57;;;;;;;-2.71;66.67;100680.89;125435;1127;22497;-78
2021/01/15 06:33:15;;;;;;;45.83;29.82;;;;;;;-2.70;66.94;100692.06;125391;1127;22451;-77
2021/01/15 06:35:47;;;;;;;49.48;29.70;;;;;;;-2.70;66.64;100685.17;125396;1127;24326;-77
2021/01/15 06:38:27;;;;;;;47.05;31.40;;;;;;;-2.69;67.04;100689.42;125076;1127;22445;-77
2021/01/15 06:40:57;;;;;;;44.48;27.98;;;;;;;-2.68;66.58;100691.08;125060;1127;22443;-77
2021/01/15 06:43:34;;;;;;;52.00;32.05;;;;;;;-2.69;67.01;100698.93;125476;1126;24236;-76
2021/01/15 06:46:05;;;;;;;52.80;29.02;;;;;;;-2.68;66.46;100700.59;125425;1128;22747;-77
2021/01/15 06:48:35;;;;;;;49.48;29.25;;;;;;;-2.67;67.11;100697.09;125403;1129;22436;-76
2021/01/15 06:51:09;;;;;;;45.15;26.15;;;;;;;-2.64;67.40;100692.59;125315;1127;24629;-76
2021/01/15 06:53:43;;;;;;;44.75;28.05;;;;;;;-2.62;67.05;100695.96;125337;1129;22824;-76
2021/01/15 06:56:18;;;;;;;45.67;29.20;;;;;;;-2.60;66.96;100693.28;125367;1127;22434;-77
2021/01/15 06:58:51;;;;;;;44.10;28.63;;;;;;;-2.60;66.70;100695.88;125321;1127;22431;-78
2021/01/15 07:01:21;;;;;;;45.58;29.92;;;;;;;-2.56;66.63;100696.59;124994;1129;22438;-76
2021/01/15 07:04:27;;;;;;;45.43;29.77;;;;;;;-2.53;66.55;100686.92;125203;1127;22517;-76
2021/01/15 07:07:01;;;;;;;43.33;30.15;;;;;;;-2.49;67.47;100690.19;125304;1127;22562;-76
2021/01/15 07:09:31;;;;;;;49.70;33.90;;;;;;;-2.42;67.21;100687.22;125354;1129;22539;-76
2021/01/15 07:12:06;;;;;;;71.37;44.70;;;;;;;-2.34;66.77;100689.41;125373;1127;22775;-76
2021/01/15 07:14:58;;;;;;;69.35;43.42;;;;;;;-2.33;66.47;100696.28;125091;1127;25032;-76
2021/01/15 07:17:28;;;;;;;;;;;;;;;-2.48;65.98;100708.21;125357;1128;22904;-76
2021/01/15 07:20:07;;;;;;;77.87;43.48;;;;;;;-2.55;66.59;100704.26;125522;1127;23002;-76
2021/01/15 07:22:53;;;;;;;91.45;49.90;;;;;;;-2.46;66.73;100706.40;125175;1130;22449;-75
2021/01/15 07:25:22;;;;;;;71.10;46.55;;;;;;;-2.32;67.27;100704.87;125440;1127;22494;-75
2021/01/15 07:27:51;;;;;;;66.90;40.33;;;;;;;-2.19;66.93;100708.52;125200;1131;22473;-77
2021/01/15 07:30:28;;;;;;;55.25;36.93;;;;;;;-2.09;67.31;100714.90;125289;1129;22450;-76
2021/01/15 07:33:06;;;;;;;58.73;37.17;;;;;;;-2.01;67.31;100719.67;125015;1129;22447;-79
2021/01/15 07:35:39;;;;;;;54.63;34.03;;;;;;;-1.92;67.03;100722.64;125113;1127;22891;-77
2021/01/15 07:38:08;;;;;;;65.45;42.88;;;;;;;-1.84;66.20;100723.98;125059;1129;22746;-78
2021/01/15 07:40:38;;;;;;;99.85;59.38;;;;;;;-1.78;66.62;100731.45;125410;1127;22433;-77
2021/01/15 07:43:46;;;;;;;114.33;66.80;;;;;;;-1.75;66.67;100728.70;125120;1127;22470;-77
2021/01/15 07:46:16;;;;;;;116.60;71.25;;;;;;;-1.71;65.89;100735.38;124941;1133;22462;-76
2021/01/15 07:49:00;;;;;;;123.40;74.82;;;;;;;-1.65;65.51;100732.48;124894;1130;24883;-77
2021/01/15 07:51:29;;;;;;;117.25;70.78;;;;;;;-1.58;65.27;100733.00;124950;1132;22939;-77
2021/01/15 07:53:57;;;;;;;133.60;85.60;;;;;;;-1.56;65.23;100721.64;124617;1130;22563;-77
2021/01/15 07:56:26;;;;;;;120.13;74.85;;;;;;;-1.52;64.84;100727.50;124599;1133;25143;-77
2021/01/15 07:58:54;;;;;;;118.25;71.87;;;;;;;-1.45;65.30;100731.43;124603;1133;22508;-77
2021/01/15 08:01:23;;;;;;;111.95;67.58;;;;;;;-1.42;65.17;100729.52;124873;1130;24581;-77
2021/01/15 08:03:57;;;;;;;98.45;61.30;;;;;;;-1.39;64.11;100725.09;124921;1130;25137;-79
2021/01/15 08:06:31;;;;;;;116.00;65.95;;;;;;;-1.42;64.72;100726.92;124848;1133;22473;-77
2021/01/15 08:09:06;;;;;;;125.95;67.62;;;;;;;-1.43;64.65;100732.20;124864;1130;24380;-78
2021/01/15 08:11:37;;;;;;;104.27;63.00;;;;;;;-1.44;64.33;100741.70;124889;1131;22463;-78
2021/01/15 08:14:17;;;;;;;101.62;59.55;;;;;;;-1.47;64.05;100746.21;124909;1131;22471;-78
2021/01/15 08:16:48;;;;;;;104.87;64.80;;;;;;;-1.50;64.09;100746.38;124652;1135;22485;-77
2021/01/15 08:19:19;;;;;;;107.07;62.93;;;;;;;-1.56;63.39;100744.96;124672;1130;24590;-79
2021/01/15 08:21:49;;;;;;;94.13;57.43;;;;;;;-1.55;63.93;100740.61;125349;1131;22441;-79
2021/01/15 08:24:23;;;;;;;94.83;59.98;;;;;;;-1.53;64.18;100738.78;125020;1130;22435;-81
2021/01/15 08:26:53;;;;;;;97.63;58.97;;;;;;;-1.56;63.86;100752.73;125486;1129;22450;-77
2021/01/15 08:29:25;;;;;;;107.17;66.02;;;;;;;-1.56;63.53;100751.91;125370;1127;22530;-78
2021/01/15 08:32:00;;;;;;;100.80;58.90;;;;;;;-1.61;63.51;100739.17;125461;1127;23345;-78
2021/01/15 08:34:35;;;;;;;88.40;52.20;;;;;;;-1.64;63.55;100752.28;125066;1129;22535;-78
2021/01/15 08:37:06;;;;;;;87.80;54.75;;;;;;;-1.64;64.07;100754.03;125451;1128;22535;-79
2021/01/15 08:40:02;;;;;;;99.80;58.80;;;;;;;-1.65;63.97;100745.44;125659;1127;22454;-78
2021/01/15 08:42:31;;;;;;;97.88;59.88;;;;;;;-1.69;63.48;100749.94;125366;1127;24578;-79
2021/01/15 08:45:00;;;;;;;92.80;59.03;;;;;;;-1.66;64.13;100760.14;125362;1129;22438;-78
2021/01/15 08:47:33;;;;;;;94.37;57.53;;;;;;;-1.64;64.49;100754.03;125356;1129;22441;-79
2021/01/15 08:50:02;;;;;;;92.42;57.93;;;;;;;-1.62;63.91;100747.87;125291;1129;22911;-78
2021/01/15 08:52:32;;;;;;;101.42;60.63;;;;;;;-1.61;63.62;100753.88;125329;1127;22530;-79
2021/01/15 08:55:05;;;;;;;91.45;57.20;;;;;;;-1.60;63.93;100755.55;125095;1131;22431;-78
2021/01/15 08:57:34;;;;;;;103.77;66.53;;;;;;;-1.56;64.40;100757.91;125120;1127;22460;-78
2021/01/15 09:00:19;;;;;;;93.12;62.13;;;;;;;-1.52;64.49;100751.65;125651;1129;22461;-79
2021/01/15 09:02:50;;;;;;;92.37;60.85;;;;;;;-1.53;63.79;100749.98;125721;1128;22441;-78
2021/01/15 09:05:20;;;;;;;100.15;61.80;;;;;;;-1.47;64.36;100743.62;125125;1127;24651;-79
2021/01/15 09:07:51;;;;;;;98.70;63.63;;;;;;;-1.38;64.58;100743.14;125044;1131;23312;-78
2021/01/15 09:10:19;;;;;;;112.65;70.52;;;;;;;-1.30;63.76;100738.40;125602;1129;22630;-79
2021/01/15 09:12:49;;;;;;;105.10;67.37;;;;;;;-1.23;64.53;100749.27;125291;1130;22448;-78
2021/01/15 09:15:24;;;;;;;77.30;48.35;;;;;;;-1.17;63.92;100750.67;125485;1129;22421;-78
2021/01/15 09:17:54;;;;;;;75.85;47.75;;;;;;;-1.13;64.32;100752.17;125347;1131;22459;-78
2021/01/15 09:20:23;;;;;;;82.17;49.73;;;;;;;-1.05;64.19;100757.80;125670;1130;22544;-79
2021/01/15 09:22:53;;;;;;;80.92;51.73;;;;;;;-0.99;64.10;100760.89;125228;1127;24319;-78
2021/01/15 09:25:21;;;;;;;85.87;51.77;;;;;;;-0.93;63.14;100766.65;125723;1131;22500;-78
2021/01/15 09:27:50;;;;;;;81.95;53.15;;;;;;;-0.99;63.11;100766.08;125575;1130;22460;-77
2021/01/15 09:30:19;;;;;;;90.17;55.75;;;;;;;-1.01;62.68;100762.72;125050;1127;22444;-78
2021/01/15 09:32:47;;;;;;;73.42;47.38;;;;;;;-1.07;62.56;100776.02;125387;1129;22456;-79
2021/01/15 09:35:19;;;;;;;75.95;46.92;;;;;;;-1.07;63.08;100773.42;125332;1130;22438;-79
2021/01/15 09:37:47;;;;;;;61.02;40.00;;;;;;;-1.08;63.76;100770.93;125074;1130;22991;-78
2021/01/15 09:40:16;;;;;;;57.25;40.88;;;;;;;-1.06;63.43;100771.70;125026;1131;22552;-77
2021/01/15 09:42:49;;;;;;;62.40;41.88;;;;;;;-1.14;63.45;100769.49;125120;1129;22434;-77
2021/01/15 09:45:17;;;;;;;57.90;36.58;;;;;;;-1.25;63.57;100770.08;125372;1128;22439;-78
2021/01/15 09:47:46;;;;;;;56.68;39.27;;;;;;;-1.28;63.65;100772.83;125364;1127;22447;-78
2021/01/15 09:50:14;;;;;;;67.05;45.73;;;;;;;-1.29;63.86;100772.92;125033;1127;24684;-79
2021/01/15 09:52:49;;;;;;;61.23;42.70;;;;;;;-1.29;63.72;100771.16;125101;1130;22462;-78
2021/01/15 09:55:17;;;;;;;55.50;38.25;;;;;;;-1.35;63.96;100773.25;125035;1127;22451;-79
2021/01/15 09:57:47;;;;;;;52.73;39.03;;;;;;;-1.37;64.84;100773.31;125260;1127;22441;-78
2021/01/15 10:00:16;;;;;;;47.10;33.92;;;;;;;-1.38;64.57;100773.41;125363;1126;24245;-78
2021/01/15 10:02:44;;;;;;;43.73;33.85;;;;;;;-1.35;65.28;100770.66;125358;1127;22434;-79
2021/01/15 10:05:13;;;;;;;39.95;29.18;;;;;;;-1.34;65.60;100767.97;125451;1127;24556;-78
2021/01/15 10:07:41;;;;;;;36.03;25.68;;;;;;;-1.30;65.26;100772.09;125590;1125;24549;-79
2021/01/15 10:10:14;;;;;;;30.50;23.05;;;;;;;-1.28;66.49;100775.42;125351;1127;22438;-79
2021/01/15 10:12:46;;;;;;;48.35;32.85;;;;;;;-1.32;65.94;100783.45;125645;1127;22451;-80
2021/01/15 10:15:14;;;;;;;41.40;28.02;;;;;;;-1.38;65.95;100784.60;125574;1129;22442;-79
2021/01/15 10:17:45;;;;;;;42.40;28.73;;;;;;;-1.42;66.21;100789.11;125656;1127;22441;-77
2021/01/15 10:20:18;;;;;;;42.75;31.05;;;;;;;-1.38;66.54;100789.78;125428;1127;22457;-76
2021/01/15 10:22:47;;;;;;;38.83;24.23;;;;;;;-1.30;66.90;100784.19;125425;1126;22580;-77
2021/01/15 10:25:15;;;;;;;37.30;25.00;;;;;;;-1.27;66.46;100781.44;125403;1126;24577;-78
2021/01/15 10:27:43;;;;;;;43.87;25.05;;;;;;;-1.26;67.13;100783.97;125404;1126;24576;-77
2021/01/15 10:30:13;;;;;;;32.55;23.20;;;;;;;-1.28;66.97;100775.42;125407;1129;22443;-77
2021/01/15 10:32:46;;;;;;;22.85;16.77;;;;;;;-1.29;66.59;100762.56;125418;1128;23321;-76
2021/01/15 10:35:14;;;;;;;25.52;17.07;;;;;;;-1.26;67.43;100767.58;125407;1127;22448;-77
2021/01/15 10:37:42;;;;;;;41.68;27.22;;;;;;;-1.22;67.46;100756.95;125420;1127;22447;-77
2021/01/15 10:40:11;;;;;;;65.28;46.02;;;;;;;-1.12;67.41;100766.84;125405;1126;22443;-77
2021/01/15 10:42:42;;;;;;;51.50;35.00;;;;;;;-1.04;67.20;100755.11;125409;1127;22445;-78
2021/01/15 10:45:11;;;;;;;50.23;30.60;;;;;;;-0.99;67.13;100753.11;125395;1126;22446;-77
2021/01/15 10:47:42;;;;;;;58.70;40.92;;;;;;;-0.99;67.63;100744.50;125362;1127;22533;-77
2021/01/15 10:50:16;;;;;;;62.48;44.53;;;;;;;-0.98;66.70;100751.35;125429;1126;22438;-78
2021/01/15 10:52:54;;;;;;;48.13;36.33;;;;;;;-0.98;67.40;100747.00;125479;1127;24048;-78
2021/01/15 10:55:23;;;;;;;48.65;34.75;;;;;;;-0.97;66.94;100746.10;125419;1127;24250;-80
2021/01/15 10:57:51;;;;;;;50.90;39.98;;;;;;;-0.91;67.63;100741.48;125393;1127;22448;-78
2021/01/15 11:00:20;;;;;;;56.50;41.48;;;;;;;-0.81;67.77;100734.86;125370;1126;24253;-77
2021/01/15 11:02:52;;;;;;;61.55;43.00;;;;;;;-0.74;67.22;100725.80;125346;1127;22473;-77
2021/01/15 11:05:21;;;;;;;59.10;39.20;;;;;;;-0.71;67.44;100730.83;125430;1126;22433;-78
2021/01/15 11:07:49;;;;;;;48.10;36.30;;;;;;;-0.68;67.59;100722.04;125407;1127;22448;-79
2021/01/15 11:10:17;;;;;;;70.95;53.30;;;;;;;-0.63;66.91;100725.19;125423;1126;22448;-77
2021/01/15 11:12:45;;;;;;;52.80;39.13;;;;;;;-0.58;67.09;100726.62;125427;1127;22435;-79
2021/01/15 11:15:14;;;;;;;58.70;41.93;;;;;;;-0.50;66.96;100726.17;125474;1127;22803;-79
2021/01/15 11:17:42;;;;;;;52.80;38.65;;;;;;;-0.41;67.36;100725.65;125526;1126;22564;-77
2021/01/15 11:20:10;;;;;;;49.38;35.00;;;;;;;-0.40;66.82;100721.29;125447;1127;22435;-78
2021/01/15 11:22:44;;;;;;;53.60;36.85;;;;;;;-0.45;66.67;100729.35;125697;1127;22465;-77
2021/01/15 11:25:13;;;;;;;50.28;34.58;;;;;;;-0.41;66.86;100735.20;125483;1126;23294;-77